Choix d'un mois et d'une année:    

Climatologie mensuelle : Mars 2019

Jour Température Vent Pluie Humidité Pression Radiations solaires
min moy max moyen rafale Secteur Max (W/m²) Durée
02/03/2019 8.5 9 10.5 8.3 24 SE 0 89.6 1017.9 114.1 0h00
03/03/2019 7.9 10.2 12.7 13.9 38.4 ESE 0 79.5 1013.2 279.2 0h00
04/03/2019 4.9 8.7 11.9 17.2 72.8 S 3.6 76.8 1002.8 720.5 1h05
05/03/2019 5 6.4 7.7 11.1 43.2 S 0.5 85.4 1011.3 252.2 0h25
06/03/2019 3.3 9.2 14.5 10.1 35.2 E 0.5 76.7 1004.3 501.3 1h05
07/03/2019 7.4 9.8 14.3 16.6 56 SSE 1 76.1 1000.3 327.2 0h00
08/03/2019 5.7 8.2 12.5 12.6 41.6 SSO 0 72.6 1016.3 693.5 2h50
09/03/2019 6.7 9.7 11.8 15 52.8 SSO 4.2 83.4 1018.2 480.3 0h00
10/03/2019 5.6 10.3 14.8 25.6 88.8 SSO 53.9 74.9 1013.7 684.5 3h00
11/03/2019 1.4 5.6 9.1 16.5 56.8 SSO 0 67.5 1023.5 771.5 2h45
12/03/2019 1.1 6.5 11 14.4 59.2 E 0 65.3 1018.7 576.4 1h40
13/03/2019 4.6 6.1 9.3 15.1 53.6 S 2.6 79.2 1013.1 585.4 1h00
14/03/2019 5 6.7 9.2 14.7 53.6 S 1.6 87.4 1010.6 189.1 0h00
15/03/2019 7.4 10 11.9 17.3 56.8 SSO 0 90.6 1012.8 141.1 0h00
16/03/2019 7 10 11.8 14.3 53.6 S 0 80.5 1014.2 264.2 0h25
17/03/2019 2.9 7.4 10.7 14 48 SSO 2.1 78.5 1009.3 585.4 1h30
18/03/2019 1.4 5.4 11.9 6.8 32.8 S 1 81 1020.8 705.5 1h50
19/03/2019 -1.3 5.4 12.9 2.4 17.6 SSO 0 72.3 1028.9 681.5 11h05
20/03/2019 -2.1 7.1 16.2 2.1 16 NO 0 67.2 1034.4 714.5 8h25
21/03/2019 -0.5 8.9 17.9 5.2 25.6 N 0 59 1033.3 678.5 11h00
22/03/2019 -0.1 10.2 20.5 2.8 17.6 NE 0 59.6 1029.8 711.5 8h25
23/03/2019 0.3 10 19.1 3.7 25.6 NE 0 68 1028.8 672.5 6h45
24/03/2019 2.2 8.6 15.2 4.5 28 ONO 0 75.9 1026.4 660.4 1h50
Moyennes 3.7 8.2 12.9 11.5 - - - 76 1017.5 521.3 -
Total - - - - - - 71 - - - 65h05


Nombre de jours
Pluie Gel Chaleur
avec pluie : 10 avec gelée : 4 avec chaleur (>=30): 0
avec plus de 1mm : 8 avec forte gelée (<=-5): 0 avec canicule (>=35): 0
avec plus de 5mm : 1 sans dégel : 0
avec plus de 10mm : 1

Répartition des vents
Direction Fréquence
N 2.7
NNE 0
NE 3.4
ENE 0
E 6.5
ESE 9.1
SE 11.3
SSE 10.6
S 17.4
SSO 17.9
SO 4.3
OSO 2.8
SSO 3
ONO 3.9
NO 4.4
NNO 2.5

Radiations solaires mensuelles : Mars 2019

Jour Ciel limpide Ciel laiteux Ciel nuageux Ciel couvert Durée
Durée % Durée % Durée % Durée % du jour
02/03/2019 0h00 0 0h00 0 0h00 0 3h15 29.4 11h04
03/03/2019 0h00 0 0h00 0 0h25 3.7 9h00 80.8 11h08
04/03/2019 1h05 9.7 0h20 3 2h30 22.4 5h55 52.9 11h11
05/03/2019 0h25 3.7 0h00 0 0h30 4.4 8h50 78.5 11h15
06/03/2019 1h05 9.6 0h45 6.6 2h10 19.2 5h50 51.6 11h18
07/03/2019 0h00 0 0h00 0 0h45 6.6 2h50 24.9 11h22
08/03/2019 2h50 24.8 0h35 5.1 1h35 13.8 4h10 36.4 11h26
09/03/2019 0h00 0 0h25 3.6 1h50 16 8h10 71.1 11h29
10/03/2019 3h00 26 0h50 7.2 2h50 24.5 3h20 28.9 11h33
11/03/2019 2h45 23.7 0h35 5 3h15 28 3h45 32.3 11h37
12/03/2019 1h40 14.3 2h00 17.1 5h35 47.9 1h05 9.3 11h40
13/03/2019 1h00 8.5 0h20 2.8 1h25 12.1 7h35 64.6 11h44
14/03/2019 0h00 0 0h00 0 0h00 0 10h25 88.3 11h48
15/03/2019 0h00 0 0h00 0 0h00 0 10h35 89.3 11h51
16/03/2019 0h25 3.5 0h00 0 0h35 4.9 9h40 81.1 11h55
17/03/2019 1h30 12.5 0h35 4.9 2h30 20.9 6h10 51.5 11h59
18/03/2019 1h50 15.2 1h00 8.3 2h55 24.2 4h45 39.5 12h02
19/03/2019 11h05 91.6 0h00 0 0h00 0 0h00 0 12h06
20/03/2019 8h25 69.2 2h05 17.1 0h40 5.5 0h00 0 12h10
21/03/2019 11h00 90 0h00 0 0h00 0 0h00 0 12h13
22/03/2019 8h25 68.5 1h50 14.9 0h55 7.5 0h00 0 12h17
23/03/2019 6h45 54.7 4h10 33.7 0h15 2 0h00 0 12h21
24/03/2019 1h50 14.8 5h00 40.3 1h15 10.1 3h10 25.5 12h24
Total 65h05 23.5 20h30 12.1 31h55 19.6 108h30 66.9 -